createdAt,value
2019-03-11T00:02:26.889Z,80.40
2019-03-11T00:04:54.544Z,80.08
2019-03-11T00:07:22.180Z,79.65
2019-03-11T00:09:49.825Z,79.50
2019-03-11T00:12:17.483Z,80.55
2019-03-11T00:14:45.103Z,80.03
2019-03-11T00:17:12.742Z,80.43
2019-03-11T00:19:40.399Z,79.44
2019-03-11T00:22:08.042Z,79.98
2019-03-11T00:24:35.691Z,80.36
2019-03-11T00:27:03.346Z,80.72
2019-03-11T00:29:30.992Z,80.11
2019-03-11T00:31:58.634Z,80.17
2019-03-11T00:34:26.286Z,80.72
2019-03-11T00:36:53.939Z,79.83
2019-03-11T00:39:21.585Z,79.78
2019-03-11T00:41:49.223Z,80.16
2019-03-11T00:44:16.866Z,79.95
2019-03-11T00:46:44.515Z,79.29
2019-03-11T00:49:12.167Z,80.07
2019-03-11T00:51:39.799Z,79.37
2019-03-11T00:54:07.461Z,79.84
2019-03-11T00:56:35.095Z,79.01
2019-03-11T00:59:02.736Z,79.23
2019-03-11T01:01:30.374Z,78.97
2019-03-11T01:03:58.016Z,79.09
2019-03-11T01:06:25.675Z,78.93
2019-03-11T01:08:53.318Z,78.12
2019-03-11T01:11:20.960Z,78.83
2019-03-11T01:13:48.604Z,78.63
2019-03-11T01:16:16.250Z,79.02
2019-03-11T01:18:43.905Z,79.24
2019-03-11T01:21:11.534Z,80.73
2019-03-11T01:23:39.259Z,82.28
2019-03-11T01:26:06.907Z,83.34
2019-03-11T01:28:34.554Z,83.82
2019-03-11T01:31:02.211Z,84.11
2019-03-11T01:33:29.835Z,83.99
2019-03-11T01:35:57.475Z,84.17
2019-03-11T01:38:25.123Z,83.42
2019-03-11T01:40:52.762Z,82.85
2019-03-11T01:43:20.406Z,83.35
2019-03-11T01:45:48.042Z,83.22
2019-03-11T01:48:15.670Z,83.04
2019-03-11T01:50:43.401Z,81.98
2019-03-11T01:53:11.048Z,79.72
2019-03-11T01:55:38.693Z,79.19
2019-03-11T01:58:06.329Z,78.80
2019-03-11T02:00:33.980Z,76.89
2019-03-11T02:03:01.618Z,75.67
2019-03-11T02:05:29.270Z,75.79
2019-03-11T02:07:56.897Z,74.30
2019-03-11T02:10:24.543Z,74.73
2019-03-11T02:12:52.191Z,74.82
2019-03-11T02:15:19.836Z,74.50
2019-03-11T02:17:47.478Z,74.90
2019-03-11T02:20:15.117Z,73.48
2019-03-11T02:22:42.771Z,74.43
2019-03-11T02:25:10.419Z,74.90
2019-03-11T02:27:38.139Z,75.16
2019-03-11T02:30:05.783Z,75.67
2019-03-11T02:32:33.424Z,75.26
2019-03-11T02:35:01.074Z,75.75
2019-03-11T02:37:28.698Z,76.26
2019-03-11T02:39:56.348Z,76.69
2019-03-11T02:42:23.995Z,76.09
2019-03-11T02:44:51.646Z,76.73
2019-03-11T02:47:19.371Z,75.27
2019-03-11T02:49:47.148Z,75.47
2019-03-11T02:52:14.830Z,74.70
2019-03-11T02:54:42.489Z,74.40
2019-03-11T02:57:10.148Z,74.23
2019-03-11T02:59:37.804Z,73.80
2019-03-11T03:02:10.779Z,73.90
2019-03-11T03:04:42.835Z,72.33
2019-03-11T03:07:10.485Z,72.71
2019-03-11T03:09:38.152Z,71.22
2019-03-11T03:12:05.920Z,70.26
2019-03-11T03:14:33.564Z,71.35
2019-03-11T03:17:01.202Z,70.39
2019-03-11T03:19:28.848Z,69.79
2019-03-11T03:21:56.495Z,68.95
2019-03-11T03:24:24.140Z,69.04
2019-03-11T03:26:51.775Z,68.22
2019-03-11T03:29:19.431Z,66.85
2019-03-11T03:31:47.080Z,66.83
2019-03-11T03:34:14.804Z,68.19
2019-03-11T03:36:42.442Z,67.01
2019-03-11T03:39:10.083Z,68.97
2019-03-11T03:41:37.721Z,67.45
2019-03-11T03:44:05.394Z,67.20
2019-03-11T03:46:33.107Z,67.69
2019-03-11T03:49:00.755Z,67.54
2019-03-11T03:51:28.402Z,67.60
2019-03-11T03:53:56.035Z,67.28
2019-03-11T03:56:23.706Z,67.78
2019-03-11T03:58:51.347Z,66.55
2019-03-11T04:01:18.997Z,66.59
2019-03-11T04:03:46.638Z,66.33
2019-03-11T04:06:14.283Z,66.89
2019-03-11T04:08:41.922Z,67.45
2019-03-11T04:11:09.584Z,67.35
2019-03-11T04:13:37.212Z,67.73
2019-03-11T04:16:04.852Z,67.84
2019-03-11T04:18:32.559Z,67.67
2019-03-11T04:21:00.222Z,68.34
2019-03-11T04:23:27.867Z,69.29
2019-03-11T04:25:55.534Z,69.47
2019-03-11T04:28:23.243Z,68.64
2019-03-11T04:30:50.888Z,68.39
2019-03-11T04:33:18.515Z,68.98
2019-03-11T04:35:46.171Z,67.64
2019-03-11T04:38:13.882Z,67.62
2019-03-11T04:40:41.514Z,68.55
2019-03-11T04:43:09.150Z,68.36
2019-03-11T04:45:36.798Z,68.73
2019-03-11T04:48:04.477Z,68.70
2019-03-11T04:50:32.131Z,67.75
2019-03-11T04:52:59.761Z,68.54
2019-03-11T04:55:27.406Z,68.99
2019-03-11T04:57:55.048Z,69.96
2019-03-11T05:00:22.717Z,68.65
2019-03-11T05:02:50.354Z,68.04
2019-03-11T05:05:18.019Z,68.54
2019-03-11T05:07:45.670Z,69.01
2019-03-11T05:10:15.948Z,68.70
2019-03-11T05:12:42.656Z,70.00
2019-03-11T05:15:10.316Z,68.85
2019-03-11T05:17:37.961Z,68.92
2019-03-11T05:20:05.602Z,68.87
2019-03-11T05:22:33.247Z,68.35
2019-03-11T05:25:00.911Z,67.56
2019-03-11T05:27:28.546Z,68.54
2019-03-11T05:29:56.182Z,68.23
2019-03-11T05:32:23.838Z,68.64
2019-03-11T05:34:51.576Z,68.62
2019-03-11T05:37:19.219Z,67.72
2019-03-11T05:39:46.858Z,67.84
2019-03-11T05:42:14.516Z,67.48
2019-03-11T05:44:42.209Z,68.09
2019-03-11T05:47:09.852Z,67.32
2019-03-11T05:49:37.502Z,66.98
2019-03-11T05:52:05.147Z,67.13
2019-03-11T05:54:32.792Z,67.78
2019-03-11T05:57:00.445Z,68.91
2019-03-11T05:59:28.075Z,68.36
2019-03-11T06:01:55.712Z,68.60
2019-03-11T06:04:23.359Z,67.73
2019-03-11T06:06:51.008Z,67.25
2019-03-11T06:09:18.636Z,66.88
2019-03-11T06:11:46.288Z,66.09
2019-03-11T06:14:13.929Z,67.17
2019-03-11T06:16:41.584Z,66.69
2019-03-11T06:19:09.223Z,65.62
2019-03-11T06:21:46.295Z,66.01
2019-03-11T06:24:13.947Z,65.22
2019-03-11T06:26:41.674Z,66.08
2019-03-11T06:29:09.408Z,66.28
2019-03-11T06:31:37.149Z,65.75
2019-03-11T06:34:04.783Z,65.99
2019-03-11T06:36:32.443Z,64.84
2019-03-11T06:39:05.795Z,64.66
2019-03-11T06:41:29.443Z,64.52
2019-03-11T06:43:57.090Z,64.52
2019-03-11T06:46:24.756Z,64.70
2019-03-11T06:48:52.406Z,64.93
2019-03-11T06:51:20.056Z,64.76
2019-03-11T06:53:47.737Z,64.18
2019-03-11T06:56:15.375Z,65.83
2019-03-11T06:58:43.020Z,65.53
2019-03-11T07:01:10.672Z,65.57
2019-03-11T07:03:38.307Z,64.83
2019-03-11T07:06:05.971Z,65.03
2019-03-11T07:08:33.620Z,65.14
2019-03-11T07:11:01.297Z,64.91
2019-03-11T07:13:28.927Z,64.53
2019-03-11T07:15:56.586Z,64.82
2019-03-11T07:18:24.231Z,64.72
2019-03-11T07:20:51.879Z,64.85
2019-03-11T07:23:19.551Z,65.10
2019-03-11T07:25:47.566Z,64.62
2019-03-11T07:28:15.208Z,65.58
2019-03-11T07:30:42.857Z,65.71
2019-03-11T07:33:10.508Z,66.81
2019-03-11T07:35:38.158Z,67.44
2019-03-11T07:38:05.799Z,68.46
2019-03-11T07:40:33.451Z,68.50
2019-03-11T07:43:01.098Z,68.41
2019-03-11T07:45:28.756Z,68.28
2019-03-11T07:47:56.408Z,67.60
2019-03-11T07:50:24.122Z,67.89
2019-03-11T07:52:51.782Z,68.08
2019-03-11T07:55:19.440Z,67.83
2019-03-11T07:57:47.117Z,68.65
2019-03-11T08:00:14.763Z,69.19
2019-03-11T08:02:42.405Z,70.84
2019-03-11T08:05:10.051Z,71.32
2019-03-11T08:07:37.697Z,71.31
2019-03-11T08:10:05.351Z,71.50
2019-03-11T08:12:33.381Z,72.00
2019-03-11T08:15:01.141Z,71.24
2019-03-11T08:17:28.808Z,71.61
2019-03-11T08:19:56.444Z,72.06
2019-03-11T08:22:24.100Z,71.54
2019-03-11T08:24:51.750Z,71.37
2019-03-11T08:27:19.436Z,71.28
2019-03-11T08:29:47.087Z,70.96
2019-03-11T08:32:14.731Z,70.46
2019-03-11T08:34:42.371Z,70.56
2019-03-11T08:37:10.039Z,70.49
2019-03-11T08:39:37.683Z,71.36
2019-03-11T08:42:05.330Z,71.44
2019-03-11T08:44:32.989Z,71.09
2019-03-11T08:47:00.622Z,70.94
2019-03-11T08:49:28.259Z,70.13
2019-03-11T08:51:55.916Z,71.25
2019-03-11T08:54:23.559Z,72.12
2019-03-11T08:59:30.040Z,75.01
2019-03-11T09:01:57.709Z,75.13
2019-03-11T09:04:25.347Z,75.37
2019-03-11T09:06:53.002Z,74.70
2019-03-11T09:09:20.636Z,74.54
2019-03-11T09:11:48.312Z,73.82
2019-03-11T09:14:15.956Z,73.77
2019-03-11T09:16:43.598Z,71.41
2019-03-11T09:19:11.240Z,70.63
2019-03-11T09:21:38.879Z,70.01
2019-03-11T09:24:06.523Z,68.43
2019-03-11T09:26:34.195Z,67.58
2019-03-11T09:29:01.870Z,66.50
2019-03-11T09:31:29.507Z,65.28
2019-03-11T09:33:57.152Z,66.19
2019-03-11T09:36:24.791Z,63.89
2019-03-11T09:38:52.438Z,63.23
2019-03-11T09:41:20.140Z,62.81
2019-03-11T09:43:47.786Z,60.53
2019-03-11T09:46:15.432Z,61.31
2019-03-11T09:48:44.925Z,59.22
2019-03-11T09:51:12.432Z,59.82
2019-03-11T09:53:40.095Z,58.89
2019-03-11T09:56:09.618Z,57.57
2019-03-11T09:58:37.104Z,55.71
2019-03-11T10:01:04.755Z,55.39
2019-03-11T10:03:32.400Z,54.98
2019-03-11T10:06:00.044Z,56.01
2019-03-11T10:08:27.707Z,55.48
2019-03-11T10:10:55.361Z,54.09
2019-03-11T10:13:23.017Z,55.07
2019-03-11T10:15:50.660Z,54.68
2019-03-11T10:18:18.384Z,54.76
2019-03-11T10:20:46.034Z,54.68
2019-03-11T10:23:13.677Z,53.35
2019-03-11T10:25:41.320Z,51.59
2019-03-11T10:28:08.972Z,50.34
2019-03-11T10:30:36.607Z,51.14
2019-03-11T10:33:04.255Z,50.91
2019-03-11T10:35:32.911Z,51.19
2019-03-11T10:38:00.999Z,53.00
2019-03-11T10:40:28.706Z,54.40
2019-03-11T10:42:56.365Z,53.80
2019-03-11T10:45:31.372Z,52.85
2019-03-11T10:47:53.393Z,51.91
2019-03-11T10:50:21.041Z,51.25
2019-03-11T10:52:48.744Z,50.40
2019-03-11T10:55:16.391Z,48.64
2019-03-11T10:57:44.031Z,49.13
2019-03-11T11:00:11.688Z,50.75
2019-03-11T11:02:39.452Z,52.51
2019-03-11T11:05:07.172Z,51.06
2019-03-11T11:07:34.873Z,50.73
2019-03-11T11:10:02.523Z,49.86
2019-03-11T11:12:30.163Z,48.72
2019-03-11T11:14:57.803Z,49.15
2019-03-11T11:17:25.459Z,49.50
2019-03-11T11:20:02.962Z,48.24
2019-03-11T11:22:22.489Z,49.38
2019-03-11T11:24:50.135Z,49.45
2019-03-11T11:27:17.786Z,49.34
2019-03-11T11:29:45.432Z,49.96
2019-03-11T11:32:13.092Z,50.57
2019-03-11T11:34:40.882Z,59.82
2019-03-11T11:37:08.583Z,64.73
2019-03-11T11:39:36.227Z,65.82
2019-03-11T11:42:03.875Z,67.61
2019-03-11T11:49:48.476Z,63.30
2019-03-11T11:52:16.133Z,63.68
2019-03-11T11:54:43.854Z,59.97
2019-03-11T11:57:11.515Z,57.93
2019-03-11T11:59:39.176Z,55.83
2019-03-11T12:02:06.811Z,54.07
2019-03-11T12:04:34.479Z,53.47
2019-03-11T12:07:02.129Z,52.84
2019-03-11T12:09:29.803Z,51.26
2019-03-11T12:11:57.456Z,50.37
2019-03-11T12:14:25.100Z,49.46
2019-03-11T12:16:53.081Z,48.82
2019-03-11T12:19:20.746Z,48.35
2019-03-11T12:21:48.432Z,49.57
2019-03-11T12:24:16.084Z,50.25
2019-03-11T12:26:43.742Z,50.27
2019-03-11T12:29:11.523Z,52.87
2019-03-11T12:31:39.156Z,55.12
2019-03-11T12:34:06.831Z,54.80
2019-03-11T12:36:34.583Z,57.07
2019-03-11T12:39:02.220Z,57.56
2019-03-11T12:41:29.867Z,57.50
2019-03-11T12:43:57.507Z,57.98
2019-03-11T12:46:25.165Z,57.03
2019-03-11T12:48:52.892Z,56.09
2019-03-11T12:51:20.617Z,54.50
2019-03-11T12:53:48.303Z,53.34
2019-03-11T12:56:15.940Z,52.63
2019-03-11T12:58:43.577Z,52.80
2019-03-11T13:01:11.232Z,53.01
2019-03-11T13:03:38.941Z,55.69
2019-03-11T13:06:06.596Z,54.35
2019-03-11T13:08:34.227Z,53.24
2019-03-11T13:11:01.864Z,52.10
2019-03-11T13:13:29.673Z,53.86
2019-03-11T13:15:57.378Z,54.88
2019-03-11T13:18:25.035Z,58.72
2019-03-11T13:20:52.681Z,59.91
2019-03-11T13:23:20.346Z,58.29
2019-03-11T13:25:48.031Z,57.18
2019-03-11T13:28:15.717Z,56.47
2019-03-11T13:30:43.527Z,55.58
2019-03-11T13:33:11.166Z,52.22
2019-03-11T13:35:38.856Z,51.44
2019-03-11T13:38:06.509Z,51.18
2019-03-11T13:40:34.175Z,51.62
2019-03-11T13:43:01.819Z,51.08
2019-03-11T13:45:29.474Z,52.01
2019-03-11T13:47:57.117Z,54.71
2019-03-11T13:50:24.796Z,57.96
2019-03-11T13:52:52.474Z,62.06
2019-03-11T13:55:20.251Z,64.17
2019-03-11T13:57:47.955Z,66.92
2019-03-11T14:00:16.075Z,68.09
2019-03-11T14:02:43.725Z,67.71
2019-03-11T14:05:11.367Z,67.13
2019-03-11T14:07:39.028Z,66.69
2019-03-11T14:10:06.683Z,66.16
2019-03-11T14:12:34.396Z,65.16
2019-03-11T14:15:02.036Z,65.29
2019-03-11T14:17:29.678Z,64.00
2019-03-11T14:19:57.327Z,64.42
2019-03-11T14:22:24.976Z,68.06
2019-03-11T14:24:52.632Z,68.66
2019-03-11T14:27:20.318Z,68.55
2019-03-11T14:29:48.076Z,68.05
2019-03-11T14:32:16.075Z,67.50
2019-03-11T14:34:43.771Z,67.38
2019-03-11T14:37:13.282Z,64.70
2019-03-11T14:39:40.938Z,64.52
2019-03-11T14:42:08.601Z,63.91
2019-03-11T14:44:36.243Z,63.13
2019-03-11T14:47:03.896Z,66.54
2019-03-11T14:49:31.540Z,71.56
2019-03-11T14:51:59.187Z,73.35
2019-03-11T14:54:26.821Z,73.31
2019-03-11T14:56:54.476Z,73.49
2019-03-11T14:59:22.127Z,72.61
2019-03-11T15:01:49.787Z,72.04
2019-03-11T15:04:17.431Z,71.52
2019-03-11T15:06:45.164Z,70.93
2019-03-11T15:09:12.903Z,70.42
2019-03-11T15:11:40.951Z,70.03
2019-03-11T15:14:08.601Z,70.02
2019-03-11T15:16:36.235Z,69.87
2019-03-11T15:19:03.890Z,68.79
2019-03-11T15:21:31.535Z,69.01
2019-03-11T15:23:59.183Z,69.19
2019-03-11T15:26:26.829Z,69.14
2019-03-11T15:28:54.491Z,68.50
2019-03-11T15:31:22.144Z,68.58
2019-03-11T15:33:49.789Z,68.73
2019-03-11T15:36:17.446Z,67.49
2019-03-11T15:38:45.090Z,67.01
2019-03-11T15:41:12.727Z,66.14
2019-03-11T15:43:40.397Z,65.57
2019-03-11T15:46:08.113Z,65.85
2019-03-11T15:48:35.765Z,64.72
2019-03-11T15:51:03.397Z,65.01
2019-03-11T15:53:31.051Z,64.90
2019-03-11T15:55:58.693Z,64.28
2019-03-11T15:58:26.410Z,64.63
2019-03-11T16:00:54.051Z,64.15
2019-03-11T16:03:21.696Z,65.25
2019-03-11T16:05:49.340Z,65.02
2019-03-11T16:08:16.987Z,64.56
2019-03-11T16:10:44.624Z,65.72
2019-03-11T16:13:12.264Z,66.04
2019-03-11T16:15:39.954Z,64.96
2019-03-11T16:18:07.600Z,65.38
2019-03-11T16:20:35.279Z,65.47
2019-03-11T16:23:02.968Z,65.06
2019-03-11T16:25:30.605Z,65.17
2019-03-11T16:27:58.268Z,65.06
2019-03-11T16:30:25.915Z,65.31
2019-03-11T16:33:01.271Z,64.91
2019-03-11T16:35:23.753Z,65.07
2019-03-11T16:37:51.400Z,64.06
2019-03-11T16:40:19.045Z,64.01
2019-03-11T16:42:46.687Z,63.54
2019-03-11T16:45:14.332Z,63.86
2019-03-11T16:47:41.985Z,63.32
2019-03-11T16:50:09.625Z,63.75
2019-03-11T16:52:37.267Z,63.56
2019-03-11T16:55:04.921Z,64.04
2019-03-11T16:57:32.623Z,63.25
2019-03-11T17:00:00.313Z,63.85
2019-03-11T17:02:28.194Z,63.27
2019-03-11T17:04:55.839Z,64.03
2019-03-11T17:07:23.458Z,63.29
2019-03-11T17:09:51.110Z,63.70
2019-03-11T17:12:18.744Z,64.16
2019-03-11T17:14:46.385Z,64.16
2019-03-11T17:17:14.026Z,63.74
2019-03-11T17:19:41.656Z,63.70
2019-03-11T17:22:09.296Z,63.48
2019-03-11T17:24:36.936Z,64.08
2019-03-11T17:27:04.574Z,63.69
2019-03-11T17:29:32.223Z,64.04
2019-03-11T17:31:59.862Z,63.54
2019-03-11T17:34:27.495Z,63.54
2019-03-11T17:36:55.139Z,63.40
2019-03-11T17:39:22.790Z,65.62
2019-03-11T17:41:50.430Z,65.95
2019-03-11T17:44:18.246Z,66.77
2019-03-11T17:46:45.888Z,66.82
2019-03-11T17:49:14.103Z,67.39
2019-03-11T17:51:41.792Z,67.15
2019-03-11T17:54:09.446Z,67.58
2019-03-11T17:56:37.091Z,68.75
2019-03-11T17:59:04.755Z,69.21
2019-03-11T18:01:32.396Z,69.62
2019-03-11T18:04:00.044Z,69.38
2019-03-11T18:06:27.700Z,70.16
2019-03-11T18:08:55.344Z,70.26
2019-03-11T18:11:23.008Z,70.82
2019-03-11T18:13:50.647Z,70.83
2019-03-11T18:16:18.315Z,70.67
2019-03-11T18:18:45.980Z,70.86
2019-03-11T18:21:13.726Z,71.39
2019-03-11T18:23:41.376Z,72.11
2019-03-11T18:26:09.036Z,70.94
2019-03-11T18:28:36.766Z,71.61
2019-03-11T18:31:04.397Z,71.29
2019-03-11T18:33:32.055Z,72.06
2019-03-11T18:35:59.702Z,72.48
2019-03-11T18:38:27.365Z,74.48
2019-03-11T18:40:55.204Z,77.28
2019-03-11T18:43:22.952Z,79.99
2019-03-11T18:45:50.660Z,81.92
2019-03-11T18:48:18.308Z,82.52
2019-03-11T18:50:45.961Z,82.94
2019-03-11T18:53:13.607Z,83.70
2019-03-11T18:55:41.268Z,84.16
2019-03-11T18:58:08.988Z,84.97
2019-03-11T19:00:36.735Z,85.14
2019-03-11T19:03:04.457Z,85.07
2019-03-11T19:05:32.191Z,85.10
2019-03-11T19:07:59.890Z,84.85
2019-03-11T19:10:27.619Z,85.33
2019-03-11T19:12:55.286Z,86.10
2019-03-11T19:15:23.004Z,85.28
2019-03-11T19:17:50.658Z,84.58
2019-03-11T19:20:18.354Z,84.03
2019-03-11T19:22:46.133Z,84.05
2019-03-11T19:25:13.781Z,84.39
2019-03-11T19:27:41.439Z,83.72
2019-03-11T19:30:09.177Z,85.14
2019-03-11T19:32:36.870Z,85.33
2019-03-11T19:35:04.544Z,86.03
2019-03-11T19:37:32.253Z,85.03
2019-03-11T19:40:00.016Z,86.21
2019-03-11T19:42:27.703Z,86.64
2019-03-11T19:44:55.335Z,86.96
2019-03-11T19:47:22.987Z,85.79
2019-03-11T19:49:50.909Z,85.62
2019-03-11T19:52:18.597Z,85.68
2019-03-11T19:54:46.324Z,86.20
2019-03-11T19:57:14.112Z,85.35
2019-03-11T19:59:41.920Z,85.25
2019-03-11T20:02:09.592Z,85.33
2019-03-11T20:04:37.381Z,85.27
2019-03-11T20:07:05.099Z,85.13
2019-03-11T20:09:34.340Z,84.94
2019-03-11T20:12:02.393Z,85.49
2019-03-11T20:14:30.036Z,85.11
2019-03-11T20:16:57.726Z,84.28
2019-03-11T20:19:25.478Z,84.32
2019-03-11T20:21:53.165Z,84.85
2019-03-11T20:24:20.861Z,85.03
2019-03-11T20:26:48.503Z,85.08
2019-03-11T20:29:16.180Z,84.91
2019-03-11T20:31:43.887Z,84.58
2019-03-11T20:34:11.590Z,84.21
2019-03-11T20:36:39.438Z,84.68
2019-03-11T20:39:07.255Z,84.78
2019-03-11T20:41:35.088Z,83.50
2019-03-11T20:44:04.973Z,83.82
2019-03-11T20:46:32.284Z,83.86
2019-03-11T20:49:00.033Z,84.05
2019-03-11T20:51:27.734Z,83.65
2019-03-11T20:53:55.398Z,83.99
2019-03-11T20:56:23.098Z,84.28
2019-03-11T20:58:50.874Z,84.75
2019-03-11T21:01:18.610Z,84.01
2019-03-11T21:03:46.318Z,83.08
2019-03-11T21:06:14.008Z,84.02
2019-03-11T21:08:41.722Z,84.79
2019-03-11T21:11:09.438Z,84.89
2019-03-11T21:13:37.072Z,85.06
2019-03-11T21:16:04.720Z,85.13
2019-03-11T21:18:32.363Z,85.03
2019-03-11T21:21:04.697Z,83.94
2019-03-11T21:23:29.407Z,83.61
2019-03-11T21:25:57.196Z,84.13
2019-03-11T21:28:25.060Z,84.42
2019-03-11T21:30:52.762Z,84.30
2019-03-11T21:33:20.446Z,83.83
2019-03-11T21:35:48.205Z,84.05
2019-03-11T21:38:16.424Z,84.29
2019-03-11T21:40:44.166Z,84.18
2019-03-11T21:43:12.017Z,84.03
2019-03-11T21:45:39.809Z,84.21
2019-03-11T21:48:07.491Z,84.20
2019-03-11T21:50:35.138Z,84.12
2019-03-11T21:53:02.853Z,84.32
2019-03-11T21:55:30.645Z,84.58
2019-03-11T21:57:58.352Z,84.66
2019-03-11T22:00:34.596Z,84.29
2019-03-11T22:02:55.347Z,85.09
2019-03-11T22:05:22.997Z,84.77
2019-03-11T22:07:50.655Z,84.99
2019-03-11T22:10:18.323Z,84.92
2019-03-11T22:12:45.993Z,84.28
2019-03-11T22:15:13.711Z,84.53
2019-03-11T22:17:41.355Z,85.42
2019-03-11T22:20:09.015Z,85.68
2019-03-11T22:22:36.679Z,86.49
2019-03-11T22:25:04.300Z,86.93
2019-03-11T22:27:31.959Z,87.30
2019-03-11T22:29:59.642Z,87.88
2019-03-11T22:32:27.451Z,88.43
2019-03-11T22:34:55.178Z,88.49
2019-03-11T22:37:22.822Z,88.55
2019-03-11T22:39:50.539Z,88.78
2019-03-11T22:42:18.198Z,88.38
2019-03-11T22:44:45.849Z,88.58
2019-03-11T22:47:13.503Z,88.25
2019-03-11T22:49:41.150Z,88.50
2019-03-11T22:52:08.798Z,88.79
2019-03-11T22:54:36.436Z,89.08
2019-03-11T22:57:04.084Z,89.31
2019-03-11T22:59:31.743Z,89.16
2019-03-11T23:01:59.404Z,89.35
2019-03-11T23:04:27.049Z,89.43
2019-03-11T23:06:54.703Z,89.28
2019-03-11T23:09:22.341Z,89.59
2019-03-11T23:11:50.015Z,89.58
2019-03-11T23:14:17.651Z,89.63
2019-03-11T23:16:45.311Z,89.93
2019-03-11T23:19:12.964Z,89.74
2019-03-11T23:21:40.620Z,89.83
2019-03-11T23:24:08.253Z,90.04
2019-03-11T23:26:35.913Z,90.32
2019-03-11T23:29:03.544Z,90.41
2019-03-11T23:31:31.199Z,90.24
2019-03-11T23:33:58.849Z,90.09
2019-03-11T23:36:26.508Z,90.02
2019-03-11T23:38:54.155Z,89.87
2019-03-11T23:41:21.815Z,90.11
2019-03-11T23:43:49.455Z,89.82
2019-03-11T23:46:17.207Z,88.94
2019-03-11T23:48:44.855Z,87.73
2019-03-11T23:51:12.508Z,87.35
2019-03-11T23:53:40.154Z,87.17
2019-03-11T23:56:07.828Z,86.03
2019-03-11T23:58:35.472Z,85.41
